sensor_id;sensor_type;location;lat;lon;timestamp;temperature;humidity
18067;DHT22;9158;51.528;7.192;2022-09-23T00:00:13;11.10;99.90
18067;DHT22;9158;51.528;7.192;2022-09-23T00:00:45;11.10;99.90
18067;DHT22;9158;51.528;7.192;2022-09-23T00:01:16;11.10;99.90
18067;DHT22;9158;51.528;7.192;2022-09-23T00:01:48;11.00;99.90
18067;DHT22;9158;51.528;7.192;2022-09-23T00:02:19;11.00;99.90
18067;DHT22;9158;51.528;7.192;2022-09-23T00:02:50;11.00;99.90
18067;DHT22;9158;51.528;7.192;2022-09-23T00:03:21;11.00;99.90
18067;DHT22;9158;51.528;7.192;2022-09-23T00:03:53;11.00;99.90
18067;DHT22;9158;51.528;7.192;2022-09-23T00:04:24;11.00;99.90
18067;DHT22;9158;51.528;7.192;2022-09-23T00:04:55;11.00;99.90
18067;DHT22;9158;51.528;7.192;2022-09-23T00:05:28;10.90;99.90
18067;DHT22;9158;51.528;7.192;2022-09-23T00:06:00;10.90;99.90
18067;DHT22;9158;51.528;7.192;2022-09-23T00:06:31;10.90;99.90
18067;DHT22;9158;51.528;7.192;2022-09-23T00:07:02;10.90;99.90
18067;DHT22;9158;51.528;7.192;2022-09-23T00:07:34;10.90;99.90
18067;DHT22;9158;51.528;7.192;2022-09-23T00:08:05;10.80;99.90
18067;DHT22;9158;51.528;7.192;2022-09-23T00:08:38;11.60;99.90
18067;DHT22;9158;51.528;7.192;2022-09-23T00:09:12;10.80;99.90
18067;DHT22;9158;51.528;7.192;2022-09-23T00:09:43;10.80;99.90
18067;DHT22;9158;51.528;7.192;2022-09-23T00:10:15;10.80;99.90
18067;DHT22;9158;51.528;7.192;2022-09-23T00:10:46;10.70;99.90
18067;DHT22;9158;51.528;7.192;2022-09-23T00:11:18;10.70;99.90
18067;DHT22;9158;51.528;7.192;2022-09-23T00:11:51;10.70;99.90
18067;DHT22;9158;51.528;7.192;2022-09-23T00:12:22;10.70;99.90
18067;DHT22;9158;51.528;7.192;2022-09-23T00:12:54;10.70;99.90
18067;DHT22;9158;51.528;7.192;2022-09-23T00:13:26;10.70;99.90
18067;DHT22;9158;51.528;7.192;2022-09-23T00:13:58;10.70;99.90
18067;DHT22;9158;51.528;7.192;2022-09-23T00:14:29;10.60;99.90
18067;DHT22;9158;51.528;7.192;2022-09-23T00:15:01;10.60;99.90
18067;DHT22;9158;51.528;7.192;2022-09-23T00:15:37;10.60;99.90
18067;DHT22;9158;51.528;7.192;2022-09-23T00:16:13;10.70;99.90
18067;DHT22;9158;51.528;7.192;2022-09-23T00:16:45;10.70;99.90
18067;DHT22;9158;51.528;7.192;2022-09-23T00:17:16;10.70;99.90
18067;DHT22;9158;51.528;7.192;2022-09-23T00:17:47;10.70;99.90
18067;DHT22;9158;51.528;7.192;2022-09-23T00:18:19;10.70;99.90
18067;DHT22;9158;51.528;7.192;2022-09-23T00:18:50;10.70;99.90
18067;DHT22;9158;51.528;7.192;2022-09-23T00:19:21;10.70;99.90
18067;DHT22;9158;51.528;7.192;2022-09-23T00:19:53;10.70;99.90
18067;DHT22;9158;51.528;7.192;2022-09-23T00:20:25;10.70;99.90
18067;DHT22;9158;51.528;7.192;2022-09-23T00:20:56;10.70;99.90
18067;DHT22;9158;51.528;7.192;2022-09-23T00:21:27;10.70;99.90
18067;DHT22;9158;51.528;7.192;2022-09-23T00:21:59;10.70;99.90
18067;DHT22;9158;51.528;7.192;2022-09-23T00:22:30;10.70;99.90
18067;DHT22;9158;51.528;7.192;2022-09-23T00:23:01;10.70;99.90
18067;DHT22;9158;51.528;7.192;2022-09-23T00:23:33;10.70;99.90
18067;DHT22;9158;51.528;7.192;2022-09-23T00:24:04;10.70;99.90
18067;DHT22;9158;51.528;7.192;2022-09-23T00:24:36;10.70;99.90
18067;DHT22;9158;51.528;7.192;2022-09-23T00:25:10;10.70;99.90
18067;DHT22;9158;51.528;7.192;2022-09-23T00:25:41;10.70;99.90
18067;DHT22;9158;51.528;7.192;2022-09-23T00:26:14;10.70;99.90
18067;DHT22;9158;51.528;7.192;2022-09-23T00:26:45;10.70;99.90
18067;DHT22;9158;51.528;7.192;2022-09-23T00:27:17;10.70;99.90
18067;DHT22;9158;51.528;7.192;2022-09-23T00:27:50;10.70;99.90
18067;DHT22;9158;51.528;7.192;2022-09-23T00:28:21;10.70;99.90
18067;DHT22;9158;51.528;7.192;2022-09-23T00:28:54;10.60;99.90
18067;DHT22;9158;51.528;7.192;2022-09-23T00:29:24;10.60;99.90
18067;DHT22;9158;51.528;7.192;2022-09-23T00:29:57;10.60;99.90
18067;DHT22;9158;51.528;7.192;2022-09-23T00:30:28;10.50;99.90
18067;DHT22;9158;51.528;7.192;2022-09-23T00:31:01;10.50;99.90
18067;DHT22;9158;51.528;7.192;2022-09-23T00:31:32;10.50;99.90
18067;DHT22;9158;51.528;7.192;2022-09-23T00:32:04;10.40;99.90
18067;DHT22;9158;51.528;7.192;2022-09-23T00:32:36;10.40;99.90
18067;DHT22;9158;51.528;7.192;2022-09-23T00:33:07;10.40;99.90
18067;DHT22;9158;51.528;7.192;2022-09-23T00:33:38;10.30;99.90
18067;DHT22;9158;51.528;7.192;2022-09-23T00:34:10;10.30;99.90
18067;DHT22;9158;51.528;7.192;2022-09-23T00:34:42;10.30;99.90
18067;DHT22;9158;51.528;7.192;2022-09-23T00:35:15;10.30;99.90
18067;DHT22;9158;51.528;7.192;2022-09-23T00:35:45;10.40;99.90
18067;DHT22;9158;51.528;7.192;2022-09-23T00:36:48;10.40;99.90
18067;DHT22;9158;51.528;7.192;2022-09-23T00:37:20;10.40;99.90
18067;DHT22;9158;51.528;7.192;2022-09-23T00:37:51;10.40;99.90
18067;DHT22;9158;51.528;7.192;2022-09-23T00:38:22;10.40;99.90
18067;DHT22;9158;51.528;7.192;2022-09-23T00:39:12;10.40;99.90
18067;DHT22;9158;51.528;7.192;2022-09-23T00:39:45;10.40;99.90
18067;DHT22;9158;51.528;7.192;2022-09-23T00:40:16;10.40;99.90
18067;DHT22;9158;51.528;7.192;2022-09-23T00:40:47;10.40;99.90
18067;DHT22;9158;51.528;7.192;2022-09-23T00:41:19;10.40;99.90
18067;DHT22;9158;51.528;7.192;2022-09-23T00:41:51;10.40;99.90
18067;DHT22;9158;51.528;7.192;2022-09-23T00:42:23;10.40;99.90
18067;DHT22;9158;51.528;7.192;2022-09-23T00:42:54;10.30;99.90
18067;DHT22;9158;51.528;7.192;2022-09-23T00:43:40;10.30;99.90
18067;DHT22;9158;51.528;7.192;2022-09-23T00:44:39;10.30;99.90
18067;DHT22;9158;51.528;7.192;2022-09-23T00:45:11;10.20;99.90
18067;DHT22;9158;51.528;7.192;2022-09-23T00:45:46;10.20;99.90
18067;DHT22;9158;51.528;7.192;2022-09-23T00:46:20;10.20;99.90
18067;DHT22;9158;51.528;7.192;2022-09-23T00:46:51;10.20;99.90
18067;DHT22;9158;51.528;7.192;2022-09-23T00:47:29;10.20;99.90
18067;DHT22;9158;51.528;7.192;2022-09-23T00:48:01;10.20;99.90
18067;DHT22;9158;51.528;7.192;2022-09-23T00:48:33;10.20;99.90
18067;DHT22;9158;51.528;7.192;2022-09-23T00:49:10;10.20;99.90
18067;DHT22;9158;51.528;7.192;2022-09-23T00:49:43;10.20;99.90
18067;DHT22;9158;51.528;7.192;2022-09-23T00:50:21;10.20;99.90
18067;DHT22;9158;51.528;7.192;2022-09-23T00:50:55;10.20;99.90
18067;DHT22;9158;51.528;7.192;2022-09-23T00:51:31;10.20;99.90
18067;DHT22;9158;51.528;7.192;2022-09-23T00:52:07;10.30;99.90
18067;DHT22;9158;51.528;7.192;2022-09-23T00:52:40;10.30;99.90
18067;DHT22;9158;51.528;7.192;2022-09-23T00:53:14;10.30;99.90
18067;DHT22;9158;51.528;7.192;2022-09-23T00:53:47;10.30;99.90
18067;DHT22;9158;51.528;7.192;2022-09-23T00:54:20;10.30;99.90
18067;DHT22;9158;51.528;7.192;2022-09-23T00:54:57;10.40;99.90
18067;DHT22;9158;51.528;7.192;2022-09-23T00:55:31;10.30;99.90
18067;DHT22;9158;51.528;7.192;2022-09-23T00:56:06;10.40;99.90
18067;DHT22;9158;51.528;7.192;2022-09-23T00:56:39;10.40;99.90
18067;DHT22;9158;51.528;7.192;2022-09-23T00:57:12;10.30;99.90
18067;DHT22;9158;51.528;7.192;2022-09-23T00:57:46;10.30;99.90
18067;DHT22;9158;51.528;7.192;2022-09-23T00:58:20;10.40;99.90
18067;DHT22;9158;51.528;7.192;2022-09-23T00:58:54;10.40;99.90
18067;DHT22;9158;51.528;7.192;2022-09-23T00:59:25;10.40;99.90
18067;DHT22;9158;51.528;7.192;2022-09-23T00:59:58;10.40;99.90
18067;DHT22;9158;51.528;7.192;2022-09-23T01:00:30;10.40;99.90
18067;DHT22;9158;51.528;7.192;2022-09-23T01:01:03;10.40;99.90
18067;DHT22;9158;51.528;7.192;2022-09-23T01:01:35;10.40;99.90
18067;DHT22;9158;51.528;7.192;2022-09-23T01:02:08;10.40;99.90
18067;DHT22;9158;51.528;7.192;2022-09-23T01:02:41;10.40;99.90
18067;DHT22;9158;51.528;7.192;2022-09-23T01:03:13;10.50;99.90
18067;DHT22;9158;51.528;7.192;2022-09-23T01:03:45;10.50;99.90
18067;DHT22;9158;51.528;7.192;2022-09-23T01:04:17;10.50;99.90
18067;DHT22;9158;51.528;7.192;2022-09-23T01:04:49;10.50;99.90
18067;DHT22;9158;51.528;7.192;2022-09-23T01:05:21;10.50;99.90
18067;DHT22;9158;51.528;7.192;2022-09-23T01:05:52;10.50;99.90
18067;DHT22;9158;51.528;7.192;2022-09-23T01:06:24;10.50;99.90
18067;DHT22;9158;51.528;7.192;2022-09-23T01:06:56;10.50;99.90
18067;DHT22;9158;51.528;7.192;2022-09-23T01:07:27;10.50;99.90
18067;DHT22;9158;51.528;7.192;2022-09-23T01:07:58;10.50;99.90
18067;DHT22;9158;51.528;7.192;2022-09-23T01:08:31;10.40;99.90
18067;DHT22;9158;51.528;7.192;2022-09-23T01:09:03;10.40;99.90
18067;DHT22;9158;51.528;7.192;2022-09-23T01:09:34;10.30;99.90
18067;DHT22;9158;51.528;7.192;2022-09-23T01:10:08;10.40;99.90
18067;DHT22;9158;51.528;7.192;2022-09-23T01:10:46;10.30;99.90
18067;DHT22;9158;51.528;7.192;2022-09-23T01:11:35;10.30;99.90
18067;DHT22;9158;51.528;7.192;2022-09-23T01:12:16;10.30;99.90
18067;DHT22;9158;51.528;7.192;2022-09-23T01:13:01;10.20;99.90
18067;DHT22;9158;51.528;7.192;2022-09-23T01:13:42;10.20;99.90
18067;DHT22;9158;51.528;7.192;2022-09-23T01:14:28;10.20;99.90
18067;DHT22;9158;51.528;7.192;2022-09-23T01:15:09;10.10;99.90
18067;DHT22;9158;51.528;7.192;2022-09-23T01:15:47;10.10;99.90
18067;DHT22;9158;51.528;7.192;2022-09-23T01:16:23;10.00;99.90
18067;DHT22;9158;51.528;7.192;2022-09-23T01:17:02;10.00;99.90
18067;DHT22;9158;51.528;7.192;2022-09-23T01:17:39;10.00;99.90
18067;DHT22;9158;51.528;7.192;2022-09-23T01:18:22;10.00;99.90
18067;DHT22;9158;51.528;7.192;2022-09-23T01:19:04;10.00;99.90
18067;DHT22;9158;51.528;7.192;2022-09-23T01:20:07;10.00;99.90
18067;DHT22;9158;51.528;7.192;2022-09-23T01:20:54;9.90;99.90
18067;DHT22;9158;51.528;7.192;2022-09-23T01:21:37;9.90;99.90
18067;DHT22;9158;51.528;7.192;2022-09-23T01:22:19;9.90;99.90
18067;DHT22;9158;51.528;7.192;2022-09-23T01:23:02;9.90;99.90
18067;DHT22;9158;51.528;7.192;2022-09-23T01:24:13;9.90;99.90
18067;DHT22;9158;51.528;7.192;2022-09-23T01:24:55;10.00;99.90
18067;DHT22;9158;51.528;7.192;2022-09-23T01:25:46;10.00;99.90
18067;DHT22;9158;51.528;7.192;2022-09-23T01:26:39;10.00;99.90
18067;DHT22;9158;51.528;7.192;2022-09-23T01:27:25;10.00;99.90
18067;DHT22;9158;51.528;7.192;2022-09-23T01:28:20;10.00;99.90
18067;DHT22;9158;51.528;7.192;2022-09-23T01:29:17;10.00;99.90
18067;DHT22;9158;51.528;7.192;2022-09-23T01:30:10;10.00;99.90
18067;DHT22;9158;51.528;7.192;2022-09-23T01:30:47;10.00;99.90
18067;DHT22;9158;51.528;7.192;2022-09-23T01:31:28;10.00;99.90
18067;DHT22;9158;51.528;7.192;2022-09-23T01:32:08;10.00;99.90
18067;DHT22;9158;51.528;7.192;2022-09-23T01:32:55;10.00;99.90
18067;DHT22;9158;51.528;7.192;2022-09-23T01:33:35;9.90;99.90
18067;DHT22;9158;51.528;7.192;2022-09-23T01:34:11;9.90;99.90
18067;DHT22;9158;51.528;7.192;2022-09-23T01:34:48;9.90;99.90
18067;DHT22;9158;51.528;7.192;2022-09-23T01:35:25;9.90;99.90
18067;DHT22;9158;51.528;7.192;2022-09-23T01:36:05;9.90;99.90
18067;DHT22;9158;51.528;7.192;2022-09-23T01:36:42;10.00;99.90
18067;DHT22;9158;51.528;7.192;2022-09-23T01:37:23;10.00;99.90
18067;DHT22;9158;51.528;7.192;2022-09-23T01:38:02;10.10;99.90
18067;DHT22;9158;51.528;7.192;2022-09-23T01:38:42;10.10;99.90
18067;DHT22;9158;51.528;7.192;2022-09-23T01:39:22;10.10;99.90
18067;DHT22;9158;51.528;7.192;2022-09-23T01:40:02;10.10;99.90
18067;DHT22;9158;51.528;7.192;2022-09-23T01:40:43;10.20;99.90
18067;DHT22;9158;51.528;7.192;2022-09-23T01:41:34;10.20;99.90
18067;DHT22;9158;51.528;7.192;2022-09-23T01:42:14;10.20;99.90
18067;DHT22;9158;51.528;7.192;2022-09-23T01:42:51;10.20;99.90
18067;DHT22;9158;51.528;7.192;2022-09-23T01:43:29;10.30;99.90
18067;DHT22;9158;51.528;7.192;2022-09-23T01:44:04;10.30;99.90
18067;DHT22;9158;51.528;7.192;2022-09-23T01:44:41;10.30;99.90
18067;DHT22;9158;51.528;7.192;2022-09-23T01:45:18;10.30;99.90
18067;DHT22;9158;51.528;7.192;2022-09-23T01:45:57;10.30;99.90
18067;DHT22;9158;51.528;7.192;2022-09-23T01:46:31;10.30;99.90
18067;DHT22;9158;51.528;7.192;2022-09-23T01:47:08;10.30;99.90
18067;DHT22;9158;51.528;7.192;2022-09-23T01:47:46;10.30;99.90
18067;DHT22;9158;51.528;7.192;2022-09-23T01:48:20;10.30;99.90
18067;DHT22;9158;51.528;7.192;2022-09-23T01:48:55;10.40;99.90
18067;DHT22;9158;51.528;7.192;2022-09-23T01:49:40;10.40;99.90
18067;DHT22;9158;51.528;7.192;2022-09-23T01:50:16;10.40;99.90
18067;DHT22;9158;51.528;7.192;2022-09-23T01:51:09;10.40;99.90
18067;DHT22;9158;51.528;7.192;2022-09-23T01:51:45;10.40;99.90
18067;DHT22;9158;51.528;7.192;2022-09-23T01:52:24;10.40;99.90
18067;DHT22;9158;51.528;7.192;2022-09-23T01:53:02;10.40;99.90
18067;DHT22;9158;51.528;7.192;2022-09-23T01:53:38;10.40;99.90
18067;DHT22;9158;51.528;7.192;2022-09-23T01:54:17;10.40;99.90
18067;DHT22;9158;51.528;7.192;2022-09-23T01:54:53;10.40;99.90
18067;DHT22;9158;51.528;7.192;2022-09-23T01:55:29;10.50;99.90
18067;DHT22;9158;51.528;7.192;2022-09-23T01:56:07;10.50;99.90
18067;DHT22;9158;51.528;7.192;2022-09-23T01:56:44;10.40;99.90
18067;DHT22;9158;51.528;7.192;2022-09-23T01:57:20;10.40;99.90
18067;DHT22;9158;51.528;7.192;2022-09-23T01:57:57;10.40;99.90
18067;DHT22;9158;51.528;7.192;2022-09-23T01:58:34;10.50;99.90
18067;DHT22;9158;51.528;7.192;2022-09-23T01:59:11;10.50;99.90
18067;DHT22;9158;51.528;7.192;2022-09-23T01:59:46;10.50;99.90
18067;DHT22;9158;51.528;7.192;2022-09-23T02:00:22;10.50;99.90
18067;DHT22;9158;51.528;7.192;2022-09-23T02:00:59;10.50;99.90
18067;DHT22;9158;51.528;7.192;2022-09-23T02:01:34;10.50;99.90
18067;DHT22;9158;51.528;7.192;2022-09-23T02:02:10;10.50;99.90
18067;DHT22;9158;51.528;7.192;2022-09-23T02:02:47;10.50;99.90
18067;DHT22;9158;51.528;7.192;2022-09-23T02:03:23;10.50;99.90
18067;DHT22;9158;51.528;7.192;2022-09-23T02:04:01;10.50;99.90
18067;DHT22;9158;51.528;7.192;2022-09-23T02:04:37;10.50;99.90
18067;DHT22;9158;51.528;7.192;2022-09-23T02:05:13;10.50;99.90
18067;DHT22;9158;51.528;7.192;2022-09-23T02:05:49;10.60;99.90
18067;DHT22;9158;51.528;7.192;2022-09-23T02:06:24;10.60;99.90
18067;DHT22;9158;51.528;7.192;2022-09-23T02:06:59;10.50;99.90
18067;DHT22;9158;51.528;7.192;2022-09-23T02:07:36;10.60;99.90
18067;DHT22;9158;51.528;7.192;2022-09-23T02:08:15;10.50;99.90
18067;DHT22;9158;51.528;7.192;2022-09-23T02:08:51;10.50;99.90
18067;DHT22;9158;51.528;7.192;2022-09-23T02:09:30;10.50;99.90
18067;DHT22;9158;51.528;7.192;2022-09-23T02:10:06;10.50;99.90
18067;DHT22;9158;51.528;7.192;2022-09-23T02:10:44;10.50;99.90
18067;DHT22;9158;51.528;7.192;2022-09-23T02:11:17;10.50;99.90
18067;DHT22;9158;51.528;7.192;2022-09-23T02:11:49;10.50;99.90
18067;DHT22;9158;51.528;7.192;2022-09-23T02:12:24;10.60;99.90
18067;DHT22;9158;51.528;7.192;2022-09-23T02:13:02;10.60;99.90
18067;DHT22;9158;51.528;7.192;2022-09-23T02:13:39;10.60;99.90
18067;DHT22;9158;51.528;7.192;2022-09-23T02:14:17;10.60;99.90
18067;DHT22;9158;51.528;7.192;2022-09-23T02:14:52;10.60;99.90
18067;DHT22;9158;51.528;7.192;2022-09-23T02:15:30;10.60;99.90
18067;DHT22;9158;51.528;7.192;2022-09-23T02:16:09;10.60;99.90
18067;DHT22;9158;51.528;7.192;2022-09-23T02:16:44;10.60;99.90
18067;DHT22;9158;51.528;7.192;2022-09-23T02:17:23;10.60;99.90
18067;DHT22;9158;51.528;7.192;2022-09-23T02:17:59;10.60;99.90
18067;DHT22;9158;51.528;7.192;2022-09-23T02:18:34;10.60;99.90
18067;DHT22;9158;51.528;7.192;2022-09-23T02:19:12;10.60;99.90
18067;DHT22;9158;51.528;7.192;2022-09-23T02:19:47;10.60;99.90
18067;DHT22;9158;51.528;7.192;2022-09-23T02:20:22;10.60;99.90
18067;DHT22;9158;51.528;7.192;2022-09-23T02:20:56;10.60;99.90
18067;DHT22;9158;51.528;7.192;2022-09-23T02:21:33;10.60;99.90
18067;DHT22;9158;51.528;7.192;2022-09-23T02:22:08;10.60;99.90
18067;DHT22;9158;51.528;7.192;2022-09-23T02:22:41;10.50;99.90
18067;DHT22;9158;51.528;7.192;2022-09-23T02:23:22;10.60;99.90
18067;DHT22;9158;51.528;7.192;2022-09-23T02:24:01;10.60;99.90
18067;DHT22;9158;51.528;7.192;2022-09-23T02:24:37;10.60;99.90
18067;DHT22;9158;51.528;7.192;2022-09-23T02:25:09;10.60;99.90
18067;DHT22;9158;51.528;7.192;2022-09-23T02:25:53;10.60;99.90
18067;DHT22;9158;51.528;7.192;2022-09-23T02:26:29;10.60;99.90
18067;DHT22;9158;51.528;7.192;2022-09-23T02:27:11;10.50;99.90
18067;DHT22;9158;51.528;7.192;2022-09-23T02:27:48;10.50;99.90
18067;DHT22;9158;51.528;7.192;2022-09-23T02:28:30;10.50;99.90
18067;DHT22;9158;51.528;7.192;2022-09-23T02:29:09;10.50;99.90
18067;DHT22;9158;51.528;7.192;2022-09-23T02:29:53;10.60;99.90
18067;DHT22;9158;51.528;7.192;2022-09-23T02:30:30;10.60;99.90
18067;DHT22;9158;51.528;7.192;2022-09-23T02:31:09;10.50;99.90
18067;DHT22;9158;51.528;7.192;2022-09-23T02:31:46;10.50;99.90
18067;DHT22;9158;51.528;7.192;2022-09-23T02:32:22;10.50;99.90
18067;DHT22;9158;51.528;7.192;2022-09-23T02:33:02;10.50;99.90
18067;DHT22;9158;51.528;7.192;2022-09-23T02:33:40;10.50;99.90
18067;DHT22;9158;51.528;7.192;2022-09-23T02:34:18;10.50;99.90
18067;DHT22;9158;51.528;7.192;2022-09-23T02:34:56;10.60;99.90
18067;DHT22;9158;51.528;7.192;2022-09-23T02:35:33;10.60;99.90
18067;DHT22;9158;51.528;7.192;2022-09-23T02:36:11;10.60;99.90
18067;DHT22;9158;51.528;7.192;2022-09-23T02:36:52;10.60;99.90
18067;DHT22;9158;51.528;7.192;2022-09-23T02:37:31;10.60;99.90
18067;DHT22;9158;51.528;7.192;2022-09-23T02:38:18;10.50;99.90
18067;DHT22;9158;51.528;7.192;2022-09-23T02:38:54;10.50;99.90
18067;DHT22;9158;51.528;7.192;2022-09-23T02:39:32;10.50;99.90
18067;DHT22;9158;51.528;7.192;2022-09-23T02:40:12;10.50;99.90
18067;DHT22;9158;51.528;7.192;2022-09-23T02:40:52;10.50;99.90
18067;DHT22;9158;51.528;7.192;2022-09-23T02:41:27;10.50;99.90
18067;DHT22;9158;51.528;7.192;2022-09-23T02:42:05;10.50;99.90
18067;DHT22;9158;51.528;7.192;2022-09-23T02:42:48;10.50;99.90
18067;DHT22;9158;51.528;7.192;2022-09-23T02:43:23;10.50;99.90
18067;DHT22;9158;51.528;7.192;2022-09-23T02:44:00;10.40;99.90
18067;DHT22;9158;51.528;7.192;2022-09-23T02:44:33;10.50;99.90
18067;DHT22;9158;51.528;7.192;2022-09-23T02:45:05;10.50;99.90
18067;DHT22;9158;51.528;7.192;2022-09-23T02:45:36;10.50;99.90
18067;DHT22;9158;51.528;7.192;2022-09-23T02:46:10;10.50;99.90
18067;DHT22;9158;51.528;7.192;2022-09-23T02:46:41;10.50;99.90
18067;DHT22;9158;51.528;7.192;2022-09-23T02:47:13;10.60;99.90
18067;DHT22;9158;51.528;7.192;2022-09-23T02:47:47;10.60;99.90
18067;DHT22;9158;51.528;7.192;2022-09-23T02:48:21;10.60;99.90
18067;DHT22;9158;51.528;7.192;2022-09-23T02:48:55;10.60;99.90
18067;DHT22;9158;51.528;7.192;2022-09-23T02:49:31;10.60;99.90
18067;DHT22;9158;51.528;7.192;2022-09-23T02:50:06;10.60;99.90
18067;DHT22;9158;51.528;7.192;2022-09-23T02:50:39;10.70;99.90
18067;DHT22;9158;51.528;7.192;2022-09-23T02:51:10;10.70;99.90
18067;DHT22;9158;51.528;7.192;2022-09-23T02:51:43;10.70;99.90
18067;DHT22;9158;51.528;7.192;2022-09-23T02:52:15;10.70;99.90
18067;DHT22;9158;51.528;7.192;2022-09-23T02:52:46;10.80;99.90
18067;DHT22;9158;51.528;7.192;2022-09-23T02:53:18;10.80;99.90
18067;DHT22;9158;51.528;7.192;2022-09-23T02:53:49;10.80;99.90
18067;DHT22;9158;51.528;7.192;2022-09-23T02:54:23;10.80;99.90
18067;DHT22;9158;51.528;7.192;2022-09-23T02:54:56;10.80;99.90
18067;DHT22;9158;51.528;7.192;2022-09-23T02:55:29;10.80;99.90
18067;DHT22;9158;51.528;7.192;2022-09-23T02:56:12;10.80;99.90
18067;DHT22;9158;51.528;7.192;2022-09-23T02:56:45;10.90;99.90
18067;DHT22;9158;51.528;7.192;2022-09-23T02:57:18;10.80;99.90
18067;DHT22;9158;51.528;7.192;2022-09-23T02:57:49;10.90;99.90
18067;DHT22;9158;51.528;7.192;2022-09-23T02:58:22;10.90;99.90
18067;DHT22;9158;51.528;7.192;2022-09-23T02:58:53;10.90;99.90
18067;DHT22;9158;51.528;7.192;2022-09-23T02:59:25;10.90;99.90
18067;DHT22;9158;51.528;7.192;2022-09-23T02:59:57;10.90;99.90
18067;DHT22;9158;51.528;7.192;2022-09-23T03:00:35;10.90;99.90
18067;DHT22;9158;51.528;7.192;2022-09-23T03:01:19;10.90;99.90
18067;DHT22;9158;51.528;7.192;2022-09-23T03:02:14;10.90;99.90
18067;DHT22;9158;51.528;7.192;2022-09-23T03:03:05;10.80;99.90
18067;DHT22;9158;51.528;7.192;2022-09-23T03:03:45;10.80;99.90
18067;DHT22;9158;51.528;7.192;2022-09-23T03:04:23;10.70;99.90
18067;DHT22;9158;51.528;7.192;2022-09-23T03:05:05;10.70;99.90
18067;DHT22;9158;51.528;7.192;2022-09-23T03:05:44;10.70;99.90
18067;DHT22;9158;51.528;7.192;2022-09-23T03:06:25;10.70;99.90
18067;DHT22;9158;51.528;7.192;2022-09-23T03:07:01;10.70;99.90
18067;DHT22;9158;51.528;7.192;2022-09-23T03:07:46;10.70;99.90
18067;DHT22;9158;51.528;7.192;2022-09-23T03:08:29;10.70;99.90
18067;DHT22;9158;51.528;7.192;2022-09-23T03:09:11;10.70;99.90
18067;DHT22;9158;51.528;7.192;2022-09-23T03:09:51;10.70;99.90
18067;DHT22;9158;51.528;7.192;2022-09-23T03:10:28;10.60;99.90
18067;DHT22;9158;51.528;7.192;2022-09-23T03:11:05;10.60;99.90
18067;DHT22;9158;51.528;7.192;2022-09-23T03:11:38;10.60;99.90
18067;DHT22;9158;51.528;7.192;2022-09-23T03:12:15;10.60;99.90
18067;DHT22;9158;51.528;7.192;2022-09-23T03:12:57;10.50;99.90
18067;DHT22;9158;51.528;7.192;2022-09-23T03:13:45;10.50;99.90
18067;DHT22;9158;51.528;7.192;2022-09-23T03:14:26;10.50;99.90
18067;DHT22;9158;51.528;7.192;2022-09-23T03:15:07;10.40;99.90
18067;DHT22;9158;51.528;7.192;2022-09-23T03:15:47;10.40;99.90
18067;DHT22;9158;51.528;7.192;2022-09-23T03:16:29;9.20;99.90
18067;DHT22;9158;51.528;7.192;2022-09-23T03:17:06;10.40;99.90
18067;DHT22;9158;51.528;7.192;2022-09-23T03:17:43;10.30;99.90
18067;DHT22;9158;51.528;7.192;2022-09-23T03:18:20;10.30;99.90
18067;DHT22;9158;51.528;7.192;2022-09-23T03:18:56;10.30;99.90
18067;DHT22;9158;51.528;7.192;2022-09-23T03:19:33;10.20;99.90
18067;DHT22;9158;51.528;7.192;2022-09-23T03:20:08;10.20;99.90
18067;DHT22;9158;51.528;7.192;2022-09-23T03:20:44;10.20;99.90
18067;DHT22;9158;51.528;7.192;2022-09-23T03:21:23;10.20;99.90
18067;DHT22;9158;51.528;7.192;2022-09-23T03:21:59;10.10;99.90
18067;DHT22;9158;51.528;7.192;2022-09-23T03:22:34;10.10;99.90
18067;DHT22;9158;51.528;7.192;2022-09-23T03:23:11;10.10;99.90
18067;DHT22;9158;51.528;7.192;2022-09-23T03:23:45;10.10;99.90
18067;DHT22;9158;51.528;7.192;2022-09-23T03:24:18;10.10;99.90
18067;DHT22;9158;51.528;7.192;2022-09-23T03:24:51;10.10;99.90
18067;DHT22;9158;51.528;7.192;2022-09-23T03:25:25;10.10;99.90
18067;DHT22;9158;51.528;7.192;2022-09-23T03:25:58;10.10;99.90
18067;DHT22;9158;51.528;7.192;2022-09-23T03:26:36;11.50;99.90
18067;DHT22;9158;51.528;7.192;2022-09-23T03:27:11;10.10;99.90
18067;DHT22;9158;51.528;7.192;2022-09-23T03:27:44;10.00;99.90
18067;DHT22;9158;51.528;7.192;2022-09-23T03:28:17;10.00;99.90
18067;DHT22;9158;51.528;7.192;2022-09-23T03:28:50;10.00;99.90
18067;DHT22;9158;51.528;7.192;2022-09-23T03:29:22;10.00;99.90
18067;DHT22;9158;51.528;7.192;2022-09-23T03:29:55;10.00;99.90
18067;DHT22;9158;51.528;7.192;2022-09-23T03:30:28;10.00;99.90
18067;DHT22;9158;51.528;7.192;2022-09-23T03:30:59;9.90;99.90
18067;DHT22;9158;51.528;7.192;2022-09-23T03:31:33;9.90;99.90
18067;DHT22;9158;51.528;7.192;2022-09-23T03:32:04;9.90;99.90
18067;DHT22;9158;51.528;7.192;2022-09-23T03:32:39;9.90;99.90
18067;DHT22;9158;51.528;7.192;2022-09-23T03:33:15;9.90;99.90
18067;DHT22;9158;51.528;7.192;2022-09-23T03:33:51;9.90;99.90
18067;DHT22;9158;51.528;7.192;2022-09-23T03:34:26;9.90;99.90
18067;DHT22;9158;51.528;7.192;2022-09-23T03:35:00;9.90;99.90
18067;DHT22;9158;51.528;7.192;2022-09-23T03:35:34;9.90;99.90
18067;DHT22;9158;51.528;7.192;2022-09-23T03:36:30;9.90;99.90
18067;DHT22;9158;51.528;7.192;2022-09-23T03:37:25;9.90;99.90
18067;DHT22;9158;51.528;7.192;2022-09-23T03:38:04;9.90;99.90
18067;DHT22;9158;51.528;7.192;2022-09-23T03:38:39;9.80;99.90
18067;DHT22;9158;51.528;7.192;2022-09-23T03:40:14;9.80;99.90
18067;DHT22;9158;51.528;7.192;2022-09-23T03:40:47;9.80;99.90
18067;DHT22;9158;51.528;7.192;2022-09-23T03:41:23;9.80;99.90
18067;DHT22;9158;51.528;7.192;2022-09-23T03:41:59;9.80;99.90
18067;DHT22;9158;51.528;7.192;2022-09-23T03:42:33;9.70;99.90
18067;DHT22;9158;51.528;7.192;2022-09-23T03:43:06;9.70;1.00
18067;DHT22;9158;51.528;7.192;2022-09-23T03:43:37;9.70;1.00
18067;DHT22;9158;51.528;7.192;2022-09-23T03:44:10;9.70;1.00
18067;DHT22;9158;51.528;7.192;2022-09-23T03:44:42;9.70;1.00
18067;DHT22;9158;51.528;7.192;2022-09-23T03:45:18;9.80;1.00
18067;DHT22;9158;51.528;7.192;2022-09-23T03:45:52;9.80;99.90
18067;DHT22;9158;51.528;7.192;2022-09-23T03:46:26;9.80;99.90
18067;DHT22;9158;51.528;7.192;2022-09-23T03:47:01;9.80;99.90
18067;DHT22;9158;51.528;7.192;2022-09-23T03:47:34;9.90;99.90
18067;DHT22;9158;51.528;7.192;2022-09-23T03:48:05;9.90;99.90
18067;DHT22;9158;51.528;7.192;2022-09-23T03:48:37;9.90;99.90
18067;DHT22;9158;51.528;7.192;2022-09-23T03:49:11;9.90;99.90
18067;DHT22;9158;51.528;7.192;2022-09-23T03:49:46;10.00;99.90
18067;DHT22;9158;51.528;7.192;2022-09-23T03:50:18;10.00;99.90
18067;DHT22;9158;51.528;7.192;2022-09-23T03:50:49;10.00;99.90
18067;DHT22;9158;51.528;7.192;2022-09-23T03:51:22;10.00;99.90
18067;DHT22;9158;51.528;7.192;2022-09-23T03:51:53;10.00;99.90
18067;DHT22;9158;51.528;7.192;2022-09-23T03:52:25;10.00;99.90
18067;DHT22;9158;51.528;7.192;2022-09-23T03:52:57;10.10;99.90
18067;DHT22;9158;51.528;7.192;2022-09-23T03:53:28;10.10;99.90